createdAt,value
2023-02-09T00:01:04.936Z,100.00
2023-02-09T00:03:31.605Z,100.00
2023-02-09T00:06:01.652Z,100.00
2023-02-09T00:08:28.260Z,100.00
2023-02-09T00:10:54.969Z,100.00
2023-02-09T00:13:25.131Z,100.00
2023-02-09T00:15:57.260Z,100.00
2023-02-09T00:18:24.597Z,100.00
2023-02-09T00:21:01.945Z,100.00
2023-02-09T00:23:30.218Z,100.00
2023-02-09T00:26:00.920Z,100.00
2023-02-09T00:28:27.706Z,100.00
2023-02-09T00:30:54.441Z,100.00
2023-02-09T00:33:21.067Z,100.00
2023-02-09T00:35:47.704Z,100.00
2023-02-09T00:38:14.525Z,100.00
2023-02-09T00:40:41.627Z,100.00
2023-02-09T00:43:08.518Z,100.00
2023-02-09T00:45:35.324Z,100.00
2023-02-09T00:48:02.026Z,100.00
2023-02-09T00:50:30.005Z,100.00
2023-02-09T00:52:56.592Z,100.00
2023-02-09T00:55:23.234Z,100.00
2023-02-09T00:57:49.884Z,100.00
2023-02-09T01:00:16.837Z,100.00
2023-02-09T01:02:43.447Z,100.00
2023-02-09T01:05:10.114Z,100.00
2023-02-09T01:07:36.773Z,100.00
2023-02-09T01:10:03.828Z,100.00
2023-02-09T01:12:30.624Z,100.00
2023-02-09T01:14:57.317Z,100.00
2023-02-09T01:17:26.099Z,100.00
2023-02-09T01:19:53.496Z,100.00
2023-02-09T01:22:20.270Z,100.00
2023-02-09T01:24:48.408Z,100.00
2023-02-09T01:27:16.360Z,100.00
2023-02-09T01:29:42.978Z,100.00
2023-02-09T01:32:11.147Z,100.00
2023-02-09T01:34:37.924Z,100.00
2023-02-09T01:37:04.507Z,100.00
2023-02-09T01:39:31.136Z,100.00
2023-02-09T01:41:57.927Z,100.00
2023-02-09T01:44:24.476Z,100.00
2023-02-09T01:46:51.086Z,100.00
2023-02-09T01:49:28.717Z,100.00
2023-02-09T01:51:56.110Z,100.00
2023-02-09T01:54:27.420Z,100.00
2023-02-09T01:57:00.267Z,100.00
2023-02-09T01:59:26.926Z,100.00
2023-02-09T02:01:53.521Z,100.00
2023-02-09T02:04:20.655Z,100.00
2023-02-09T02:06:47.327Z,100.00
2023-02-09T02:09:15.281Z,100.00
2023-02-09T02:11:43.452Z,100.00
2023-02-09T02:14:32.253Z,100.00
2023-02-09T02:17:36.535Z,100.00
2023-02-09T02:20:18.327Z,100.00
2023-02-09T02:23:23.945Z,100.00
2023-02-09T02:25:56.432Z,100.00
2023-02-09T02:28:33.353Z,100.00
2023-02-09T02:31:18.755Z,100.00
2023-02-09T02:33:48.482Z,100.00
2023-02-09T02:36:31.968Z,100.00
2023-02-09T02:39:26.817Z,100.00
2023-02-09T02:42:17.138Z,100.00
2023-02-09T02:44:45.020Z,100.00
2023-02-09T02:47:13.309Z,100.00
2023-02-09T02:49:42.686Z,100.00
2023-02-09T02:52:09.730Z,100.00
2023-02-09T02:54:49.348Z,100.00
2023-02-09T02:57:18.245Z,100.00
2023-02-09T02:59:48.507Z,100.00
2023-02-09T03:02:23.433Z,100.00
2023-02-09T03:04:52.636Z,100.00
2023-02-09T03:07:19.259Z,100.00
2023-02-09T03:09:53.537Z,100.00
2023-02-09T03:12:51.788Z,100.00
2023-02-09T03:15:44.729Z,100.00
2023-02-09T03:18:17.467Z,100.00
2023-02-09T03:20:54.989Z,100.00
2023-02-09T03:23:33.144Z,100.00
2023-02-09T03:26:03.607Z,100.00
2023-02-09T03:28:33.229Z,100.00
2023-02-09T03:30:59.937Z,100.00
2023-02-09T03:33:28.113Z,100.00
2023-02-09T03:35:55.772Z,100.00
2023-02-09T03:38:22.651Z,100.00
2023-02-09T03:40:52.483Z,100.00
2023-02-09T03:43:19.141Z,100.00
2023-02-09T03:45:45.716Z,100.00
2023-02-09T03:48:12.385Z,100.00
2023-02-09T03:50:38.985Z,100.00
2023-02-09T03:53:08.172Z,100.00
2023-02-09T03:55:34.838Z,100.00
2023-02-09T03:58:01.452Z,100.00
2023-02-09T04:00:28.101Z,100.00
2023-02-09T04:02:54.735Z,100.00
2023-02-09T04:05:22.821Z,100.00
2023-02-09T04:07:49.749Z,100.00
2023-02-09T04:10:16.447Z,100.00
2023-02-09T04:12:43.092Z,100.00
2023-02-09T04:15:09.994Z,100.00
2023-02-09T04:17:36.601Z,100.00
2023-02-09T04:20:03.276Z,100.00
2023-02-09T04:22:29.898Z,100.00
2023-02-09T04:24:56.487Z,100.00
2023-02-09T04:27:23.120Z,100.00
2023-02-09T04:29:49.708Z,100.00
2023-02-09T04:32:16.311Z,100.00
2023-02-09T04:34:42.899Z,100.00
2023-02-09T04:37:09.526Z,100.00
2023-02-09T04:39:36.117Z,100.00
2023-02-09T04:42:02.739Z,100.00
2023-02-09T04:44:30.930Z,100.00
2023-02-09T04:46:57.562Z,100.00
2023-02-09T04:49:24.159Z,100.00
2023-02-09T04:51:50.823Z,100.00
2023-02-09T04:54:17.409Z,100.00
2023-02-09T04:56:43.997Z,100.00
2023-02-09T04:59:29.171Z,100.00
2023-02-09T05:01:55.967Z,100.00
2023-02-09T05:04:22.556Z,100.00
2023-02-09T05:06:49.192Z,100.00
2023-02-09T05:09:15.834Z,100.00
2023-02-09T05:11:42.424Z,100.00
2023-02-09T05:14:09.084Z,100.00
2023-02-09T05:16:37.604Z,100.00
2023-02-09T05:19:05.447Z,100.00
2023-02-09T05:21:32.044Z,100.00
2023-02-09T05:23:58.682Z,100.00
2023-02-09T05:26:25.294Z,100.00
2023-02-09T05:28:51.955Z,100.00
2023-02-09T05:31:19.046Z,100.00
2023-02-09T05:33:45.702Z,100.00
2023-02-09T05:36:12.882Z,100.00
2023-02-09T05:38:39.736Z,100.00
2023-02-09T05:41:07.333Z,100.00
2023-02-09T05:43:33.988Z,100.00
2023-02-09T05:46:00.621Z,100.00
2023-02-09T05:48:27.285Z,100.00
2023-02-09T05:50:53.863Z,100.00
2023-02-09T05:53:20.506Z,100.00
2023-02-09T05:55:47.513Z,100.00
2023-02-09T05:58:14.151Z,100.00
2023-02-09T06:00:40.808Z,100.00
2023-02-09T06:03:07.578Z,100.00
2023-02-09T06:05:34.240Z,100.00
2023-02-09T06:08:00.869Z,100.00
2023-02-09T06:10:27.450Z,100.00
2023-02-09T06:12:54.069Z,100.00
2023-02-09T06:15:21.091Z,100.00
2023-02-09T06:17:47.941Z,100.00
2023-02-09T06:20:14.639Z,100.00
2023-02-09T06:22:41.244Z,100.00
2023-02-09T06:25:08.035Z,100.00
2023-02-09T06:27:34.747Z,100.00
2023-02-09T06:30:01.364Z,100.00
2023-02-09T06:32:28.074Z,100.00
2023-02-09T06:34:54.656Z,100.00
2023-02-09T06:37:21.250Z,100.00
2023-02-09T06:39:47.830Z,100.00
2023-02-09T06:42:14.683Z,100.00
2023-02-09T06:44:41.349Z,100.00
2023-02-09T06:47:07.948Z,100.00
2023-02-09T06:49:34.608Z,100.00
2023-02-09T06:52:01.641Z,100.00
2023-02-09T06:54:29.423Z,100.00
2023-02-09T06:56:56.072Z,100.00
2023-02-09T06:59:22.831Z,100.00
2023-02-09T07:01:52.793Z,100.00
2023-02-09T07:04:21.252Z,100.00
2023-02-09T07:06:47.824Z,100.00
2023-02-09T07:09:14.479Z,100.00
2023-02-09T07:11:41.074Z,100.00
2023-02-09T07:14:07.675Z,100.00
2023-02-09T07:16:34.274Z,100.00
2023-02-09T07:19:01.154Z,100.00
2023-02-09T07:21:27.792Z,100.00
2023-02-09T07:23:54.482Z,100.00
2023-02-09T07:26:21.097Z,100.00
2023-02-09T07:28:47.772Z,100.00
2023-02-09T07:31:14.815Z,100.00
2023-02-09T07:33:41.474Z,100.00
2023-02-09T07:36:09.719Z,100.00
2023-02-09T07:38:36.648Z,100.00
2023-02-09T07:41:03.894Z,100.00
2023-02-09T07:43:30.620Z,100.00
2023-02-09T07:46:04.418Z,100.00
2023-02-09T07:48:31.373Z,100.00
2023-02-09T07:50:57.986Z,100.00
2023-02-09T07:53:24.604Z,100.00
2023-02-09T07:55:51.216Z,100.00
2023-02-09T07:58:19.871Z,100.00
2023-02-09T08:00:47.545Z,100.00
2023-02-09T08:03:15.170Z,100.00
2023-02-09T08:05:45.464Z,100.00
2023-02-09T08:08:12.342Z,100.00
2023-02-09T08:10:39.554Z,100.00
2023-02-09T08:13:06.189Z,100.00
2023-02-09T08:15:48.867Z,100.00
2023-02-09T08:18:27.612Z,100.00
2023-02-09T08:20:54.229Z,100.00
2023-02-09T08:23:26.884Z,100.00
2023-02-09T08:25:53.741Z,100.00
2023-02-09T08:28:20.699Z,100.00
2023-02-09T08:30:47.721Z,100.00
2023-02-09T08:33:14.343Z,100.00
2023-02-09T08:35:41.108Z,100.00
2023-02-09T08:38:07.722Z,100.00
2023-02-09T08:40:36.104Z,100.00
2023-02-09T08:43:02.723Z,100.00
2023-02-09T08:45:29.504Z,100.00
2023-02-09T08:47:56.184Z,100.00
2023-02-09T08:50:22.889Z,100.00
2023-02-09T08:52:52.297Z,100.00
2023-02-09T08:55:18.908Z,100.00
2023-02-09T08:57:45.612Z,100.00
2023-02-09T09:00:12.815Z,100.00
2023-02-09T09:02:39.394Z,100.00
2023-02-09T09:05:06.482Z,100.00
2023-02-09T09:07:33.090Z,100.00
2023-02-09T09:09:59.762Z,100.00
2023-02-09T09:12:26.390Z,100.00
2023-02-09T09:14:53.050Z,100.00
2023-02-09T09:17:19.633Z,100.00
2023-02-09T09:19:46.315Z,100.00
2023-02-09T09:22:12.952Z,100.00
2023-02-09T09:24:41.041Z,100.00
2023-02-09T09:27:08.480Z,100.00
2023-02-09T09:29:36.040Z,100.00
2023-02-09T09:32:02.858Z,100.00
2023-02-09T09:34:29.587Z,97.22
2023-02-09T09:36:56.179Z,93.40
2023-02-09T09:39:22.863Z,89.59
2023-02-09T09:41:49.540Z,85.98
2023-02-09T09:44:19.028Z,90.84
2023-02-09T09:46:49.819Z,87.28
2023-02-09T09:49:24.365Z,85.94
2023-02-09T09:51:56.643Z,83.46
2023-02-09T09:54:26.822Z,83.42
2023-02-09T09:56:53.824Z,80.34
2023-02-09T09:59:25.641Z,78.14
2023-02-09T10:01:53.167Z,78.76
2023-02-09T10:04:21.045Z,76.98
2023-02-09T10:06:58.230Z,74.35
2023-02-09T10:09:52.546Z,72.99
2023-02-09T10:12:39.394Z,72.58
2023-02-09T10:15:27.935Z,70.66
2023-02-09T10:17:55.734Z,71.74
2023-02-09T10:20:41.933Z,69.90
2023-02-09T10:23:28.773Z,65.23
2023-02-09T10:25:59.328Z,66.55
2023-02-09T10:28:27.788Z,62.95
2023-02-09T10:30:55.866Z,63.03
2023-02-09T10:33:22.506Z,68.40
2023-02-09T10:35:58.697Z,70.12
2023-02-09T10:38:28.362Z,74.43
2023-02-09T10:40:54.983Z,70.66
2023-02-09T10:43:30.108Z,73.17
2023-02-09T10:45:58.775Z,70.95
2023-02-09T10:48:26.350Z,69.53
2023-02-09T10:51:00.057Z,76.09
2023-02-09T10:53:37.179Z,78.86
2023-02-09T10:56:09.468Z,74.60
2023-02-09T10:58:36.459Z,74.05
2023-02-09T11:01:09.367Z,71.70
2023-02-09T11:03:36.623Z,69.00
2023-02-09T11:06:23.487Z,68.15
2023-02-09T11:08:53.051Z,66.07
2023-02-09T11:11:30.044Z,67.89
2023-02-09T11:13:56.847Z,71.01
2023-02-09T11:16:23.832Z,73.39
2023-02-09T11:19:05.881Z,71.46
2023-02-09T11:21:41.937Z,71.15
2023-02-09T11:24:26.434Z,68.65
2023-02-09T11:27:01.087Z,68.30
2023-02-09T11:29:30.922Z,61.11
2023-02-09T11:32:09.716Z,63.29
2023-02-09T11:34:42.498Z,65.97
2023-02-09T11:37:40.739Z,62.79
2023-02-09T11:40:47.618Z,62.09
2023-02-09T11:43:30.935Z,60.42
2023-02-09T11:46:05.626Z,61.20
2023-02-09T11:48:35.074Z,61.57
2023-02-09T11:51:22.324Z,62.02
2023-02-09T11:53:51.861Z,59.42
2023-02-09T11:56:20.154Z,58.79
2023-02-09T11:58:47.231Z,58.72
2023-02-09T12:01:32.644Z,58.73
2023-02-09T12:04:02.914Z,62.21
2023-02-09T12:06:32.303Z,61.13
2023-02-09T12:09:33.415Z,60.69
2023-02-09T12:12:17.575Z,59.07
2023-02-09T12:14:57.128Z,56.74
2023-02-09T12:17:43.458Z,60.10
2023-02-09T12:20:29.113Z,53.78
2023-02-09T12:26:42.842Z,49.48
2023-02-09T12:33:24.030Z,55.92
2023-02-09T12:36:05.690Z,58.12
2023-02-09T12:38:54.536Z,56.71
2023-02-09T12:41:42.638Z,56.49
2023-02-09T12:48:21.314Z,54.17
2023-02-09T12:50:47.866Z,55.19
2023-02-09T12:53:23.581Z,55.24
2023-02-09T12:56:11.488Z,54.94
2023-02-09T12:59:14.670Z,53.80
2023-02-09T13:02:04.426Z,51.75
2023-02-09T13:04:33.764Z,53.57
2023-02-09T13:07:00.432Z,53.37
2023-02-09T13:09:30.937Z,53.19
2023-02-09T13:12:09.039Z,53.87
2023-02-09T13:14:35.713Z,52.67
2023-02-09T13:17:08.469Z,49.51
2023-02-09T13:19:57.085Z,49.56
2023-02-09T13:22:39.529Z,47.37
2023-02-09T13:25:34.062Z,50.24
2023-02-09T13:28:17.847Z,51.06
2023-02-09T13:30:45.027Z,53.04
2023-02-09T13:33:33.652Z,52.15
2023-02-09T13:36:00.548Z,52.99
2023-02-09T13:38:29.728Z,54.62
2023-02-09T13:40:56.644Z,56.20
2023-02-09T13:43:33.845Z,58.44
2023-02-09T13:46:01.754Z,60.79
2023-02-09T13:48:33.706Z,61.09
2023-02-09T13:51:13.318Z,62.84
2023-02-09T13:53:40.006Z,61.75
2023-02-09T13:56:09.050Z,61.35
2023-02-09T13:58:36.547Z,61.05
2023-02-09T14:01:05.202Z,61.09
2023-02-09T14:03:39.467Z,61.67
2023-02-09T14:06:21.538Z,62.76
2023-02-09T14:08:48.526Z,65.19
2023-02-09T14:11:45.814Z,66.13
2023-02-09T14:14:19.154Z,67.70
2023-02-09T14:16:53.604Z,68.93
2023-02-09T14:19:28.109Z,67.72
2023-02-09T14:21:57.686Z,68.52
2023-02-09T14:24:26.101Z,66.26
2023-02-09T14:27:00.748Z,66.13
2023-02-09T14:29:32.131Z,64.83
2023-02-09T14:31:59.573Z,63.71
2023-02-09T14:34:34.601Z,64.06
2023-02-09T14:37:03.550Z,63.90
2023-02-09T14:39:31.664Z,63.04
2023-02-09T14:42:02.191Z,65.58
2023-02-09T14:44:31.878Z,64.04
2023-02-09T14:46:59.988Z,62.91
2023-02-09T14:49:26.838Z,64.47
2023-02-09T14:52:04.999Z,63.74
2023-02-09T14:54:33.697Z,64.50
2023-02-09T14:57:04.434Z,66.14
2023-02-09T14:59:31.446Z,65.56
2023-02-09T15:01:58.113Z,63.11
2023-02-09T15:04:24.802Z,65.00
2023-02-09T15:06:58.635Z,64.32
2023-02-09T15:09:45.480Z,63.13
2023-02-09T15:12:20.253Z,64.84
2023-02-09T15:14:46.892Z,64.69
2023-02-09T15:17:18.372Z,63.91
2023-02-09T15:19:45.614Z,63.37
2023-02-09T15:22:15.056Z,62.23
2023-02-09T15:24:43.050Z,63.26
2023-02-09T15:27:26.465Z,67.19
2023-02-09T15:29:53.537Z,65.49
2023-02-09T15:32:20.920Z,66.31
2023-02-09T15:34:47.724Z,68.06
2023-02-09T15:37:21.136Z,67.92
2023-02-09T15:39:49.498Z,68.56
2023-02-09T15:42:35.538Z,71.28
2023-02-09T15:45:40.791Z,72.06
2023-02-09T15:48:07.847Z,70.71
2023-02-09T15:50:36.530Z,70.44
2023-02-09T15:53:04.145Z,72.81
2023-02-09T15:55:31.184Z,72.42
2023-02-09T15:57:57.826Z,74.04
2023-02-09T16:00:28.204Z,72.35
2023-02-09T16:02:55.463Z,72.84
2023-02-09T16:05:22.245Z,74.37
2023-02-09T16:07:52.091Z,73.38
2023-02-09T16:10:25.512Z,72.75
2023-02-09T16:12:52.353Z,73.67
2023-02-09T16:15:20.204Z,74.42
2023-02-09T16:17:46.989Z,76.01
2023-02-09T16:20:13.788Z,76.63
2023-02-09T16:22:41.065Z,74.64
2023-02-09T16:25:24.454Z,74.57
2023-02-09T16:27:51.814Z,75.29
2023-02-09T16:30:23.424Z,76.59
2023-02-09T16:32:50.315Z,79.75
2023-02-09T16:35:17.503Z,81.45
2023-02-09T16:37:45.266Z,83.04
2023-02-09T16:40:26.497Z,83.61
2023-02-09T16:42:53.266Z,84.13
2023-02-09T16:45:19.918Z,84.23
2023-02-09T16:47:50.337Z,86.43
2023-02-09T16:50:33.011Z,88.67
2023-02-09T16:53:01.100Z,89.40
2023-02-09T16:55:29.747Z,91.15
2023-02-09T16:57:57.213Z,89.84
2023-02-09T17:00:25.373Z,90.51
2023-02-09T17:02:56.710Z,89.23
2023-02-09T17:05:30.734Z,88.70
2023-02-09T17:08:12.221Z,89.40
2023-02-09T17:10:38.848Z,88.24
2023-02-09T17:13:05.650Z,87.20
2023-02-09T17:15:36.862Z,87.43
2023-02-09T17:18:04.967Z,88.17
2023-02-09T17:20:42.466Z,89.61
2023-02-09T17:23:14.453Z,90.36
2023-02-09T17:25:41.124Z,91.89
2023-02-09T17:28:07.757Z,91.05
2023-02-09T17:30:34.459Z,90.40
2023-02-09T17:33:02.840Z,90.54
2023-02-09T17:35:57.986Z,89.93
2023-02-09T17:38:27.515Z,91.80
2023-02-09T17:41:02.151Z,92.61
2023-02-09T17:43:28.844Z,92.87
2023-02-09T17:45:55.637Z,94.01
2023-02-09T17:48:22.477Z,94.88
2023-02-09T17:50:50.086Z,94.41
2023-02-09T17:53:21.804Z,97.43
2023-02-09T17:55:48.873Z,98.25
2023-02-09T17:58:15.804Z,99.22
2023-02-09T18:00:43.792Z,97.62
2023-02-09T18:03:15.417Z,95.25
2023-02-09T18:05:42.297Z,95.10
2023-02-09T18:08:09.176Z,95.35
2023-02-09T18:10:35.875Z,98.19
2023-02-09T18:13:02.547Z,98.43
2023-02-09T18:15:30.944Z,97.66
2023-02-09T18:17:57.620Z,97.11
2023-02-09T18:20:28.865Z,98.64
2023-02-09T18:22:56.273Z,98.13
2023-02-09T18:25:26.944Z,98.45
2023-02-09T18:27:53.621Z,100.00
2023-02-09T18:30:25.792Z,99.39
2023-02-09T18:32:52.569Z,100.00
2023-02-09T18:35:24.106Z,99.59
2023-02-09T18:37:50.780Z,100.00
2023-02-09T18:40:18.019Z,100.00
2023-02-09T18:42:46.547Z,100.00
2023-02-09T18:45:16.875Z,100.00
2023-02-09T18:47:43.615Z,99.17
2023-02-09T18:50:11.964Z,100.00
2023-02-09T18:52:49.960Z,99.23
2023-02-09T18:55:16.904Z,99.34
2023-02-09T18:57:43.578Z,99.38
2023-02-09T19:00:11.964Z,98.22
2023-02-09T19:02:38.845Z,99.51
2023-02-09T19:05:05.779Z,99.77
2023-02-09T19:07:32.653Z,100.00
2023-02-09T19:09:59.478Z,100.00
2023-02-09T19:12:28.243Z,100.00
2023-02-09T19:14:55.199Z,100.00
2023-02-09T19:17:22.213Z,100.00
2023-02-09T19:19:48.930Z,100.00
2023-02-09T19:22:17.966Z,100.00
2023-02-09T19:24:45.785Z,100.00
2023-02-09T19:27:12.571Z,100.00
2023-02-09T19:29:41.262Z,100.00
2023-02-09T19:32:08.546Z,100.00
2023-02-09T19:34:38.654Z,100.00
2023-02-09T19:37:05.955Z,100.00
2023-02-09T19:39:38.227Z,100.00
2023-02-09T19:42:05.766Z,100.00
2023-02-09T19:44:32.658Z,100.00
2023-02-09T19:46:59.491Z,100.00
2023-02-09T19:49:26.168Z,100.00
2023-02-09T19:51:52.800Z,100.00
2023-02-09T19:54:19.481Z,100.00
2023-02-09T19:56:46.193Z,100.00
2023-02-09T19:59:13.244Z,100.00
2023-02-09T20:02:04.945Z,100.00
2023-02-09T20:04:31.558Z,100.00
2023-02-09T20:06:58.469Z,100.00
2023-02-09T20:09:25.082Z,100.00
2023-02-09T20:11:52.051Z,100.00
2023-02-09T20:14:18.719Z,100.00
2023-02-09T20:16:45.391Z,100.00
2023-02-09T20:19:12.968Z,100.00
2023-02-09T20:21:39.975Z,100.00
2023-02-09T20:24:09.601Z,100.00
2023-02-09T20:26:36.296Z,100.00
2023-02-09T20:29:05.506Z,100.00
2023-02-09T20:31:34.959Z,100.00
2023-02-09T20:34:05.181Z,100.00
2023-02-09T20:36:38.226Z,100.00
2023-02-09T20:39:05.918Z,100.00
2023-02-09T20:41:32.707Z,100.00
2023-02-09T20:44:17.793Z,100.00
2023-02-09T20:46:56.234Z,100.00
2023-02-09T20:49:25.929Z,100.00
2023-02-09T20:51:52.561Z,100.00
2023-02-09T20:54:19.234Z,100.00
2023-02-09T20:56:45.923Z,100.00
2023-02-09T20:59:13.290Z,100.00
2023-02-09T21:01:40.070Z,100.00
2023-02-09T21:04:07.436Z,100.00
2023-02-09T21:06:36.938Z,100.00
2023-02-09T21:09:07.647Z,100.00
2023-02-09T21:11:34.320Z,100.00
2023-02-09T21:14:03.915Z,100.00
2023-02-09T21:16:30.904Z,100.00
2023-02-09T21:18:58.116Z,100.00
2023-02-09T21:21:26.267Z,100.00
2023-02-09T21:23:52.996Z,100.00
2023-02-09T21:26:19.966Z,100.00
2023-02-09T21:28:48.599Z,100.00
2023-02-09T21:31:16.945Z,100.00
2023-02-09T21:33:43.741Z,100.00
2023-02-09T21:36:10.438Z,100.00
2023-02-09T21:38:41.879Z,100.00
2023-02-09T21:41:32.656Z,100.00
2023-02-09T21:44:00.226Z,100.00
2023-02-09T21:46:26.993Z,100.00
2023-02-09T21:48:53.701Z,100.00
2023-02-09T21:51:20.383Z,100.00
2023-02-09T21:53:47.278Z,100.00
2023-02-09T21:56:13.955Z,100.00
2023-02-09T21:58:40.896Z,100.00
2023-02-09T22:01:07.594Z,100.00
2023-02-09T22:03:34.310Z,100.00
2023-02-09T22:06:01.470Z,100.00
2023-02-09T22:08:28.400Z,100.00
2023-02-09T22:10:55.197Z,100.00
2023-02-09T22:13:21.870Z,100.00
2023-02-09T22:15:48.442Z,100.00
2023-02-09T22:18:15.086Z,100.00
2023-02-09T22:20:42.369Z,100.00
2023-02-09T22:23:09.326Z,100.00
2023-02-09T22:25:36.117Z,100.00
2023-02-09T22:28:03.797Z,100.00
2023-02-09T22:30:30.422Z,100.00
2023-02-09T22:32:57.083Z,100.00
2023-02-09T22:35:23.691Z,100.00
2023-02-09T22:37:50.297Z,100.00
2023-02-09T22:40:16.961Z,100.00
2023-02-09T22:42:43.596Z,100.00
2023-02-09T22:45:10.212Z,100.00
2023-02-09T22:47:36.860Z,100.00
2023-02-09T22:50:03.724Z,100.00
2023-02-09T22:52:30.356Z,100.00
2023-02-09T22:54:59.011Z,100.00
2023-02-09T22:57:26.454Z,100.00
2023-02-09T22:59:53.056Z,100.00
2023-02-09T23:02:19.634Z,100.00
2023-02-09T23:04:46.265Z,100.00
2023-02-09T23:07:12.923Z,100.00
2023-02-09T23:09:39.538Z,100.00
2023-02-09T23:12:06.200Z,100.00
2023-02-09T23:14:32.814Z,100.00
2023-02-09T23:16:59.701Z,100.00
2023-02-09T23:19:26.311Z,100.00
2023-02-09T23:21:52.929Z,100.00
2023-02-09T23:24:24.677Z,100.00
2023-02-09T23:26:51.791Z,100.00
2023-02-09T23:29:18.513Z,100.00
2023-02-09T23:31:45.184Z,100.00
2023-02-09T23:34:16.861Z,100.00
2023-02-09T23:36:43.653Z,100.00
2023-02-09T23:39:14.487Z,100.00
2023-02-09T23:41:41.076Z,100.00
2023-02-09T23:44:07.800Z,100.00
2023-02-09T23:46:34.434Z,100.00
2023-02-09T23:49:01.138Z,100.00
2023-02-09T23:51:33.140Z,100.00
2023-02-09T23:54:01.571Z,100.00
2023-02-09T23:56:28.391Z,100.00
2023-02-09T23:58:55.183Z,100.00
